Time;durP1;ratioP1;P1;durP2;ratioP2;P2;SDS_P1;SDS_P2;PMS_P1;PMS_P2;Temp;Humidity;BMP_temperature;BMP_pressure;BME280_temperature;BME280_humidity;BME280_pressure;Samples;Min_cycle;Max_cycle;Signal;HPM_P1;HPM_P2
2022/05/24 00:02:00;;;;;;;11.13;3.45;;;;;;;13.78;100.00;99841.19;4974836;28;20030;-70
2022/05/24 00:04:26;;;;;;;6.57;3.67;;;;;;;13.86;100.00;99834.88;4985998;28;20485;-71
2022/05/24 00:06:51;;;;;;;5.30;3.60;;;;;;;13.87;100.00;99851.63;4975825;28;20031;-70
2022/05/24 00:09:16;;;;;;;7.45;3.80;;;;;;;13.77;100.00;99854.63;4960505;28;20446;-70
2022/05/24 00:11:42;;;;;;;8.77;3.88;;;;;;;13.79;100.00;99852.59;4989313;28;20054;-70
2022/05/24 00:14:07;;;;;;;7.00;4.32;;;;;;;13.72;100.00;99857.88;4976371;28;20052;-70
2022/05/24 00:16:32;;;;;;;6.35;4.10;;;;;;;13.70;100.00;99859.91;4963649;28;20486;-70
2022/05/24 00:18:58;;;;;;;5.80;4.05;;;;;;;13.64;100.00;99857.22;4976870;28;20035;-70
2022/05/24 00:21:24;;;;;;;5.43;4.45;;;;;;;13.33;100.00;99823.97;4971526;28;20035;-70
2022/05/24 00:23:49;;;;;;;6.78;3.95;;;;;;;13.64;100.00;99859.84;4977018;28;20066;-69
2022/05/24 00:26:27;;;;;;;5.65;4.32;;;;;;;13.64;100.00;99857.22;4978241;28;20061;-70
2022/05/24 00:28:52;;;;;;;6.70;4.97;;;;;;;13.53;100.00;99864.69;4983579;28;20097;-70
2022/05/24 00:31:18;;;;;;;7.35;4.38;;;;;;;13.53;100.00;99867.31;4974487;28;20035;-70
2022/05/24 00:33:43;;;;;;;6.43;4.72;;;;;;;13.42;100.00;99851.97;4978710;28;20486;-70
2022/05/24 00:36:09;;;;;;;7.68;4.68;;;;;;;13.44;100.00;99873.78;4978877;28;20578;-70
2022/05/24 00:38:39;;;;;;;7.13;4.47;;;;;;;13.29;100.00;99859.81;4975301;28;20062;-70
2022/05/24 00:41:28;;;;;;;8.57;4.88;;;;;;;13.35;100.00;99869.66;4979965;28;20051;-70
2022/05/24 00:43:55;;;;;;;10.75;5.20;;;;;;;13.40;100.00;99872.53;4981775;28;20085;-70
2022/05/24 00:46:28;;;;;;;10.05;5.55;;;;;;;13.42;100.00;99881.13;4971865;28;20032;-70
2022/05/24 00:49:02;;;;;;;8.18;5.30;;;;;;;13.47;100.00;99870.75;4958813;28;20054;-70
2022/05/24 00:51:34;;;;;;;7.72;6.00;;;;;;;13.36;100.00;99858.84;4979735;28;20066;-70
2022/05/24 00:54:00;;;;;;;9.60;5.63;;;;;;;13.41;100.00;99865.41;4981081;28;20022;-70
2022/05/24 00:56:50;;;;;;;9.43;4.88;;;;;;;13.35;100.00;99867.81;4976668;28;20035;-70
2022/05/24 00:59:31;;;;;;;7.13;4.83;;;;;;;13.26;100.00;99873.41;4979134;28;20521;-70
2022/05/24 01:01:58;;;;;;;8.38;5.70;;;;;;;13.15;100.00;99875.56;4980846;28;20109;-70
2022/05/24 01:04:23;;;;;;;8.45;5.57;;;;;;;12.95;100.00;99862.13;4976465;28;20097;-70
2022/05/24 01:06:49;;;;;;;10.73;5.60;;;;;;;12.96;100.00;99862.97;4959255;28;20122;-70
2022/05/24 01:09:20;;;;;;;11.88;5.57;;;;;;;12.92;100.00;99873.09;4959828;28;20027;-70
2022/05/24 01:11:50;;;;;;;11.07;6.50;;;;;;;12.91;100.00;99860.88;4974741;28;20045;-70
2022/05/24 01:14:18;;;;;;;7.45;5.57;;;;;;;12.95;100.00;99872.72;4977740;28;20042;-70
2022/05/24 01:16:44;;;;;;;9.25;6.28;;;;;;;12.87;100.00;99875.50;4966730;28;20438;-70
2022/05/24 01:19:17;;;;;;;8.20;5.18;;;;;;;12.86;100.00;99873.03;4979995;28;20031;-70
2022/05/24 01:21:43;;;;;;;7.53;5.95;;;;;;;12.90;100.00;99879.59;4956931;28;20042;-70
2022/05/24 01:24:28;;;;;;;7.22;5.30;;;;;;;12.88;100.00;99892.22;4976182;28;20031;-69
2022/05/24 01:26:56;;;;;;;8.50;5.38;;;;;;;12.83;100.00;99889.31;4978002;28;20445;-70
2022/05/24 01:29:25;;;;;;;13.48;5.40;;;;;;;12.77;100.00;99886.41;4958495;28;20037;-70
2022/05/24 01:37:21;;;;;;;5.25;4.43;;;;;;;12.47;100.00;99861.03;4973508;28;20065;-70
2022/05/24 01:39:52;;;;;;;5.90;4.22;;;;;;;12.61;100.00;99881.34;4985827;28;20019;-70
2022/05/24 01:42:17;;;;;;;6.88;3.70;;;;;;;12.54;100.00;99861.91;4981528;28;20460;-70
2022/05/24 01:44:50;;;;;;;4.60;3.60;;;;;;;12.55;100.00;99882.91;4983252;28;20451;-70
2022/05/24 01:47:18;;;;;;;6.22;3.35;;;;;;;12.54;100.00;99880.44;4968871;28;20345;-70
2022/05/24 01:49:48;;;;;;;7.68;3.60;;;;;;;12.54;100.00;99880.44;4977214;28;20035;-70
2022/05/24 01:52:33;;;;;;;4.87;3.43;;;;;;;12.42;100.00;99879.28;4976127;28;20035;-70
2022/05/24 01:55:10;;;;;;;7.22;3.60;;;;;;;12.34;100.00;99878.38;4979131;28;20030;-70
2022/05/24 01:57:43;;;;;;;6.72;3.40;;;;;;;12.35;100.00;99873.94;4980025;28;20474;-70
2022/05/24 02:00:12;;;;;;;5.93;3.92;;;;;;;12.16;100.00;99866.56;4973676;28;20414;-70
2022/05/24 02:02:37;;;;;;;4.93;3.50;;;;;;;11.70;100.00;99828.69;4977772;28;20046;-70
2022/05/24 02:05:03;;;;;;;6.28;4.15;;;;;;;11.98;100.00;99869.59;4971006;28;20431;-70
2022/05/24 02:07:29;;;;;;;7.63;4.07;;;;;;;11.94;100.00;99864.66;4977226;28;20031;-70
2022/05/24 02:09:56;;;;;;;6.15;4.18;;;;;;;11.91;100.00;99874.75;4974079;28;20569;-70
2022/05/24 02:12:23;;;;;;;5.22;4.15;;;;;;;11.97;100.00;99865.28;4977957;28;20168;-70
2022/05/24 02:15:18;;;;;;;7.63;4.43;;;;;;;11.96;100.00;99863.66;4976915;28;20026;-70
2022/05/24 02:17:49;;;;;;;13.20;4.55;;;;;;;11.88;100.00;99852.16;4975979;28;20041;-70
2022/05/24 02:20:24;;;;;;;5.80;4.50;;;;;;;11.89;100.00;99866.22;4975592;28;20034;-69
2022/05/24 02:22:49;;;;;;;7.60;4.95;;;;;;;12.00;100.00;99878.13;4985842;28;20041;-69
2022/05/24 02:25:22;;;;;;;6.88;4.55;;;;;;;11.98;100.00;99873.03;4975096;28;20068;-70
2022/05/24 02:27:47;;;;;;;10.63;5.68;;;;;;;11.99;100.00;99877.31;4985942;28;20019;-70
2022/05/24 02:30:20;;;;;;;7.72;4.72;;;;;;;12.01;100.00;99866.56;4975588;28;20490;-70
2022/05/24 02:32:46;;;;;;;8.05;5.88;;;;;;;11.99;100.00;99879.16;4977549;28;20022;-70
2022/05/24 02:35:12;;;;;;;9.73;5.65;;;;;;;11.86;100.00;99880.56;4976925;28;20026;-70
2022/05/24 02:37:38;;;;;;;8.00;5.28;;;;;;;11.76;100.00;99858.88;4973771;28;20065;-70
2022/05/24 02:42:49;;;;;;;7.30;5.78;;;;;;;11.82;100.00;99876.63;4978534;28;20468;-68
2022/05/24 02:45:15;;;;;;;9.68;5.47;;;;;;;12.02;100.00;99892.84;4972158;28;20137;-69
2022/05/24 02:47:40;;;;;;;9.35;6.00;;;;;;;11.97;100.00;99886.44;4974770;28;20074;-70
2022/05/24 02:50:09;;;;;;;7.50;6.22;;;;;;;12.05;100.00;99884.53;4977295;28;20506;-70
2022/05/24 02:52:35;;;;;;;9.13;5.60;;;;;;;12.08;100.00;99891.28;4956514;28;20069;-70
2022/05/24 02:55:00;;;;;;;8.10;5.88;;;;;;;12.09;100.00;99898.22;4979313;28;20030;-70
2022/05/24 02:57:26;;;;;;;7.95;5.90;;;;;;;12.14;100.00;99901.94;4975711;28;20027;-69
2022/05/24 02:59:51;;;;;;;8.77;5.53;;;;;;;12.20;100.00;99897.75;4977799;28;20026;-69
2022/05/24 03:02:16;;;;;;;8.95;5.85;;;;;;;12.16;100.00;99890.38;4983121;28;20034;-70
2022/05/24 03:04:42;;;;;;;8.55;5.60;;;;;;;12.21;100.00;99885.34;4976383;28;20474;-70
2022/05/24 03:09:51;;;;;;;10.07;5.78;;;;;;;12.18;100.00;99888.38;4977102;28;20042;-70
2022/05/24 03:15:03;;;;;;;10.75;6.95;;;;;;;12.16;100.00;99890.38;4960530;28;20085;-70
2022/05/24 03:17:28;;;;;;;12.40;7.10;;;;;;;12.20;100.00;99892.47;4962254;28;20039;-70
2022/05/24 03:19:54;;;;;;;13.18;6.60;;;;;;;12.17;100.00;99878.75;4977796;28;20081;-70
2022/05/24 03:22:19;;;;;;;9.57;6.57;;;;;;;12.24;100.00;99893.72;4956408;28;20031;-69
2022/05/24 03:24:45;;;;;;;10.00;7.45;;;;;;;12.21;100.00;99878.22;4985304;28;20027;-70
2022/05/24 03:27:13;;;;;;;14.57;7.68;;;;;;;12.14;100.00;99887.91;4940911;28;20394;-70
2022/05/24 03:29:43;;;;;;;12.85;7.75;;;;;;;12.14;100.00;99909.06;4974397;28;20090;-70
2022/05/24 03:32:10;;;;;;;11.90;8.00;;;;;;;12.14;100.00;99917.00;4976089;28;20117;-70
2022/05/24 03:34:37;;;;;;;10.85;7.13;;;;;;;12.12;100.00;99906.59;4976848;28;20482;-70
2022/05/24 03:37:02;;;;;;;11.13;7.50;;;;;;;12.17;100.00;99913.97;4979337;28;20030;-70
2022/05/24 03:39:28;;;;;;;14.50;7.65;;;;;;;12.12;100.00;99887.25;4979712;28;20049;-70
2022/05/24 03:41:53;;;;;;;12.57;8.10;;;;;;;12.27;100.00;99911.06;4949473;28;20038;-70
2022/05/24 03:44:19;;;;;;;11.10;7.80;;;;;;;12.27;100.00;99916.34;4975394;28;20026;-70
2022/05/24 03:46:45;;;;;;;10.60;7.20;;;;;;;12.19;100.00;99909.31;4977697;28;20038;-70
2022/05/24 03:49:11;;;;;;;11.45;7.60;;;;;;;12.26;100.00;99920.81;4992070;28;20038;-70
2022/05/24 03:51:36;;;;;;;14.68;7.82;;;;;;;12.39;100.00;99930.75;4970113;28;20031;-70
2022/05/24 03:54:01;;;;;;;14.20;8.10;;;;;;;12.44;100.00;99927.56;4977131;28;20069;-70
2022/05/24 03:56:27;;;;;;;14.98;8.63;;;;;;;12.47;100.00;99925.34;4974826;28;20050;-70
2022/05/24 03:58:52;;;;;;;10.77;7.53;;;;;;;12.40;100.00;99921.81;4977594;28;20109;-70
2022/05/24 04:01:18;;;;;;;13.68;8.23;;;;;;;12.58;100.00;99933.81;4959320;28;20494;-69
2022/05/24 04:03:43;;;;;;;12.98;8.77;;;;;;;12.64;100.00;99933.09;4978319;28;20533;-70
2022/05/24 04:06:08;;;;;;;16.27;9.82;;;;;;;12.60;100.00;99924.69;4978858;28;20121;-70
2022/05/24 04:08:34;;;;;;;15.40;9.82;;;;;;;12.63;100.00;99929.63;4980379;28;20375;-70
2022/05/24 04:11:10;;;;;;;16.73;9.60;;;;;;;12.71;100.00;99929.50;4982439;28;20073;-70
2022/05/24 04:13:37;;;;;;;16.25;10.93;;;;;;;12.69;100.00;99920.91;4981755;28;20557;-70
2022/05/24 04:16:03;;;;;;;18.35;11.80;;;;;;;12.72;100.00;99927.69;4971581;28;20058;-70
2022/05/24 04:18:29;;;;;;;22.05;12.25;;;;;;;12.67;100.00;99912.38;4972593;28;20043;-70
2022/05/24 04:20:55;;;;;;;20.90;12.93;;;;;;;12.76;100.00;99918.38;4980881;28;20027;-70
2022/05/24 04:23:21;;;;;;;22.58;13.02;;;;;;;12.77;100.00;99912.88;4972171;28;20125;-70
2022/05/24 04:25:47;;;;;;;21.65;13.77;;;;;;;12.74;100.00;99915.09;4967058;28;20053;-69
2022/05/24 04:28:13;;;;;;;20.65;13.18;;;;;;;12.85;100.00;99927.03;4971674;28;20038;-69
2022/05/24 04:30:38;;;;;;;20.88;14.10;;;;;;;12.83;100.00;99926.38;4977041;28;20359;-70
2022/05/24 04:33:04;;;;;;;23.00;13.60;;;;;;;12.93;100.00;99940.13;4982519;28;20042;-70
2022/05/24 04:35:29;;;;;;;23.77;12.52;;;;;;;12.94;100.00;99944.44;4980413;28;20392;-70
2022/05/24 04:37:55;;;;;;;19.80;12.48;;;;;;;12.94;100.00;99939.13;4985849;28;20049;-70
2022/05/24 04:42:18;;;;;;;21.60;13.05;;;;;;;13.00;100.00;99950.78;4978262;28;20030;-70
2022/05/24 04:43:06;;;;;;;21.90;13.45;;;;;;;13.05;100.00;99951.06;4980519;28;20046;-70
2022/05/24 04:45:31;;;;;;;24.00;13.32;;;;;;;13.05;100.00;99951.06;4959277;28;20045;-70
2022/05/24 04:47:56;;;;;;;24.17;14.13;;;;;;;13.04;100.00;99944.13;4978008;28;20117;-70
2022/05/24 04:50:22;;;;;;;24.05;14.15;;;;;;;13.12;100.00;99947.47;4966212;28;20534;-70
2022/05/24 04:52:47;;;;;;;20.65;13.57;;;;;;;13.11;100.00;99947.66;4985529;28;20537;-70
2022/05/24 04:55:14;;;;;;;19.65;11.57;;;;;;;13.16;100.00;99953.22;4988964;28;20099;-70
2022/05/24 04:57:40;;;;;;;16.70;11.25;;;;;;;13.28;100.00;99964.13;4986158;28;20068;-70
2022/05/24 05:00:12;;;;;;;17.05;11.48;;;;;;;13.33;100.00;99959.94;4985507;28;20037;-70
2022/05/24 05:02:38;;;;;;;21.33;11.13;;;;;;;13.39;100.00;99947.75;4977289;28;20487;-70
2022/05/24 05:05:03;;;;;;;21.77;11.43;;;;;;;13.50;100.00;99946.41;4965398;28;20031;-70
2022/05/24 05:07:29;;;;;;;18.65;11.43;;;;;;;13.42;100.00;99963.28;4985944;28;20057;-69
2022/05/24 05:09:54;;;;;;;13.52;10.00;;;;;;;13.53;100.00;99964.59;4985608;28;20034;-69
2022/05/24 05:12:20;;;;;;;17.08;9.27;;;;;;;13.72;100.00;99957.81;4985202;28;20069;-69
2022/05/24 05:14:45;;;;;;;16.27;10.00;;;;;;;13.69;100.00;99943.09;4980081;28;20392;-69
2022/05/24 05:17:11;;;;;;;17.25;9.05;;;;;;;13.83;100.00;99959.94;4959165;28;20035;-69
2022/05/24 05:19:37;;;;;;;14.02;8.43;;;;;;;13.87;100.00;99958.56;4981656;28;20038;-69
2022/05/24 05:22:02;;;;;;;13.90;8.55;;;;;;;13.78;100.00;99954.38;4972437;28;20049;-69
2022/05/24 05:24:28;;;;;;;18.48;8.35;;;;;;;13.89;100.00;99963.66;4983087;28;20042;-71
2022/05/24 05:26:54;;;;;;;15.00;8.20;;;;;;;13.99;100.00;99970.25;4980498;28;20030;-72
2022/05/24 05:31:16;;;;;;;11.38;7.25;;;;;;;14.13;100.00;99965.03;4973031;28;20030;-72
2022/05/24 05:32:05;;;;;;;15.27;7.30;;;;;;;14.23;100.00;99975.31;4970150;28;20057;-72
2022/05/24 05:34:31;;;;;;;11.32;6.72;;;;;;;14.31;100.00;99977.81;4982936;28;20084;-71
2022/05/24 05:36:56;;;;;;;10.23;7.05;;;;;;;14.31;99.55;99983.94;4984705;28;20022;-72
2022/05/24 05:39:21;;;;;;;12.52;7.20;;;;;;;14.40;98.54;99988.06;4982094;28;20058;-72
2022/05/24 05:41:47;;;;;;;10.95;6.90;;;;;;;14.50;98.54;99992.19;4983156;28;20483;-72
2022/05/24 05:44:12;;;;;;;15.38;7.25;;;;;;;14.50;98.16;99993.03;4980576;28;20027;-72
2022/05/24 05:46:37;;;;;;;10.88;7.35;;;;;;;14.39;98.71;99997.06;4980833;28;20027;-71
2022/05/24 05:49:03;;;;;;;11.20;6.35;;;;;;;14.26;98.84;100010.22;4974627;28;20549;-72
2022/05/24 05:51:28;;;;;;;12.60;7.70;;;;;;;14.33;98.99;100019.06;4980545;28;20466;-72
2022/05/24 05:53:54;;;;;;;14.25;7.55;;;;;;;14.23;98.93;100017.78;4982527;28;20029;-71
2022/05/24 05:56:21;;;;;;;11.55;6.53;;;;;;;14.17;99.70;100019.34;4999283;28;20429;-71
2022/05/24 05:58:50;;;;;;;12.98;7.70;;;;;;;14.05;100.00;100020.91;4984509;28;20030;-71
2022/05/24 06:01:29;;;;;;;11.30;7.28;;;;;;;13.92;100.00;100009.19;4986936;28;20072;-70
2022/05/24 06:03:56;;;;;;;12.05;7.82;;;;;;;13.88;100.00;99999.16;4989055;28;20034;-71
2022/05/24 06:06:23;;;;;;;12.52;7.35;;;;;;;14.07;100.00;100008.28;4988624;28;20097;-71
2022/05/24 06:08:49;;;;;;;12.63;6.95;;;;;;;14.08;100.00;100001.94;4984508;28;20026;-71
2022/05/24 06:11:15;;;;;;;10.63;6.50;;;;;;;14.29;100.00;100009.84;4959877;28;20031;-71
2022/05/24 06:13:41;;;;;;;10.98;7.07;;;;;;;14.27;99.01;100008.41;4983845;28;20030;-71
2022/05/24 06:16:08;;;;;;;10.57;7.07;;;;;;;14.23;99.12;100023.88;4988821;28;20046;-71
2022/05/24 06:18:35;;;;;;;11.77;7.43;;;;;;;14.05;100.00;100020.91;4984401;28;20548;-71
2022/05/24 06:21:00;;;;;;;11.60;7.47;;;;;;;13.91;100.00;100015.47;4961876;28;20041;-71
2022/05/24 06:23:26;;;;;;;12.43;7.50;;;;;;;13.95;100.00;100030.00;4998230;28;20498;-71
2022/05/24 06:25:51;;;;;;;10.07;6.68;;;;;;;13.96;100.00;100022.88;4976015;28;20459;-71
2022/05/24 06:28:17;;;;;;;11.35;7.20;;;;;;;13.73;100.00;100002.69;4980790;28;20031;-71
2022/05/24 06:30:43;;;;;;;13.85;8.63;;;;;;;13.95;100.00;100031.84;4962167;28;20030;-71
2022/05/24 06:33:10;;;;;;;9.65;7.05;;;;;;;13.93;100.00;100021.41;4970444;28;20457;-71
2022/05/24 06:35:38;;;;;;;12.48;7.63;;;;;;;13.81;100.00;100015.00;4985934;28;20026;-71
2022/05/24 06:38:03;;;;;;;14.80;8.32;;;;;;;13.93;100.00;100017.94;4987795;28;20104;-72
2022/05/24 06:40:29;;;;;;;15.40;8.63;;;;;;;13.90;100.00;100024.47;4962260;28;20030;-73
2022/05/24 06:42:54;;;;;;;13.00;9.05;;;;;;;13.61;100.00;100027.25;4967297;28;20038;-71
2022/05/24 06:45:20;;;;;;;12.75;7.45;;;;;;;13.49;100.00;100029.59;4975882;28;20496;-72
2022/05/24 06:47:45;;;;;;;14.88;8.88;;;;;;;13.44;100.00;100032.81;4984287;28;20054;-71
2022/05/24 06:50:12;;;;;;;16.02;8.27;;;;;;;13.46;100.00;100044.06;4985047;28;20038;-72
2022/05/24 06:52:38;;;;;;;11.90;9.70;;;;;;;13.43;100.00;100033.00;4980878;28;20045;-71
2022/05/24 06:55:06;;;;;;;18.17;10.38;;;;;;;13.37;100.00;100048.66;4980096;28;20517;-71
2022/05/24 06:57:31;;;;;;;14.32;9.77;;;;;;;13.41;100.00;100030.53;4968625;28;20557;-72
2022/05/24 07:02:41;;;;;;;11.65;8.77;;;;;;;13.55;100.00;100042.09;4980591;28;20054;-71
2022/05/24 07:05:24;;;;;;;11.18;7.90;;;;;;;13.90;100.00;100080.16;4960578;28;20038;-72
2022/05/24 07:07:49;;;;;;;13.55;6.88;;;;;;;13.90;100.00;100082.81;4981150;28;20104;-70
2022/05/24 07:10:17;;;;;;;9.73;6.05;;;;;;;13.76;100.00;100059.81;4984072;28;20039;-70
2022/05/24 07:12:45;;;;;;;9.63;5.75;;;;;;;13.99;100.00;100060.44;4979865;28;20030;-72
2022/05/24 07:15:13;;;;;;;11.45;6.15;;;;;;;14.16;100.00;100052.22;4981463;28;20085;-72
2022/05/24 07:17:38;;;;;;;10.40;5.70;;;;;;;14.12;100.00;100083.63;4960339;28;20114;-71
2022/05/24 07:20:04;;;;;;;7.38;5.28;;;;;;;14.02;100.00;100079.66;4960188;28;20360;-71
2022/05/24 07:22:30;;;;;;;9.85;5.53;;;;;;;14.09;100.00;100081.34;4982297;28;20050;-71
2022/05/24 07:24:55;;;;;;;11.45;6.35;;;;;;;13.91;100.00;100076.50;4982542;28;20039;-71
2022/05/24 07:27:21;;;;;;;8.68;6.43;;;;;;;13.70;100.00;100085.28;4976538;28;20030;-72
2022/05/24 07:29:47;;;;;;;10.82;6.28;;;;;;;13.71;100.00;100083.44;4980893;28;20062;-71
2022/05/24 07:32:13;;;;;;;9.10;6.57;;;;;;;13.95;100.00;100091.03;4959830;28;20062;-71
2022/05/24 07:34:38;;;;;;;7.90;6.25;;;;;;;13.95;100.00;100061.84;4979131;28;20510;-71
2022/05/24 07:37:12;;;;;;;9.60;7.63;;;;;;;14.24;100.00;100094.53;4983859;28;20438;-71
2022/05/24 07:39:37;;;;;;;10.75;7.47;;;;;;;14.36;100.00;100098.28;4980459;28;20490;-71
2022/05/24 07:47:21;;;;;;;14.80;7.65;;;;;;;14.15;100.00;100108.94;4978021;28;20182;-71
2022/05/24 07:49:46;;;;;;;15.57;7.85;;;;;;;14.08;100.00;100095.63;4980731;28;20103;-73
2022/05/24 07:52:12;;;;;;;10.60;6.07;;;;;;;14.09;99.64;100105.25;4980376;28;20239;-70
2022/05/24 07:54:37;;;;;;;8.02;5.30;;;;;;;14.28;99.13;100095.78;4982146;28;20057;-72
2022/05/24 07:57:08;;;;;;;11.02;5.47;;;;;;;14.42;98.53;100103.88;4980223;28;20031;-72
2022/05/24 07:59:34;;;;;;;12.00;5.32;;;;;;;14.34;97.63;100096.84;4985079;28;20034;-72
2022/05/24 08:02:00;;;;;;;12.15;5.45;;;;;;;14.13;96.70;100097.69;4982573;28;20038;-71
2022/05/24 08:04:25;;;;;;;10.05;5.38;;;;;;;13.98;97.92;100109.22;4985198;28;20121;-71
2022/05/24 08:06:51;;;;;;;8.68;4.72;;;;;;;13.83;99.00;100119.06;4964176;28;20088;-72
2022/05/24 08:09:16;;;;;;;8.95;4.68;;;;;;;13.79;100.00;100123.13;4989818;28;20112;-71
2022/05/24 08:11:42;;;;;;;8.35;4.05;;;;;;;13.93;100.00;100119.56;4965471;28;20061;-71
2022/05/24 08:14:07;;;;;;;9.75;4.30;;;;;;;13.83;100.00;100129.69;4979887;28;20132;-71
2022/05/24 08:16:33;;;;;;;10.77;4.40;;;;;;;13.89;100.00;100134.25;4977370;28;20248;-71
2022/05/24 08:19:01;;;;;;;9.68;4.25;;;;;;;13.95;100.00;100135.31;4979735;28;20113;-71
2022/05/24 08:21:27;;;;;;;7.93;4.38;;;;;;;13.85;99.01;100127.66;4982704;28;20096;-71
2022/05/24 08:23:53;;;;;;;10.07;3.92;;;;;;;13.74;99.80;100136.09;4982508;28;20026;-71
2022/05/24 08:26:18;;;;;;;8.50;4.78;;;;;;;13.66;99.90;100128.28;4982426;28;20035;-71
2022/05/24 08:28:47;;;;;;;6.82;4.32;;;;;;;13.61;100.00;100135.97;4982044;28;20464;-71
2022/05/24 08:31:13;;;;;;;7.97;4.50;;;;;;;13.43;100.00;100153.09;4984005;28;20415;-71
2022/05/24 08:33:38;;;;;;;8.30;4.43;;;;;;;13.46;100.00;100142.13;4982689;28;20125;-71
2022/05/24 08:36:04;;;;;;;9.75;5.00;;;;;;;13.28;100.00;100145.19;4979038;28;20435;-71
2022/05/24 08:38:31;;;;;;;8.95;4.70;;;;;;;13.12;100.00;100132.91;4975223;28;20055;-71
2022/05/24 08:41:01;;;;;;;8.90;4.57;;;;;;;13.21;100.00;100151.38;4949820;28;20536;-71
2022/05/24 08:49:37;;;;;;;7.63;4.72;;;;;;;13.25;100.00;100163.25;4982140;28;20048;-72
2022/05/24 08:52:06;;;;;;;10.07;4.72;;;;;;;13.39;100.00;100159.78;4982344;28;20026;-71
2022/05/24 08:54:43;;;;;;;7.65;4.25;;;;;;;13.42;100.00;100170.03;4982430;28;20093;-71
2022/05/24 08:57:16;;;;;;;10.05;5.18;;;;;;;13.09;100.00;100180.97;4971629;28;20090;-71
2022/05/24 09:00:11;;;;;;;7.95;4.97;;;;;;;12.92;100.00;100174.22;4985109;28;20180;-71
2022/05/24 09:02:43;;;;;;;8.07;5.22;;;;;;;12.87;100.00;100172.09;4979764;28;20073;-71
2022/05/24 09:05:18;;;;;;;9.63;5.90;;;;;;;12.89;100.00;100179.84;4985171;28;20027;-71
2022/05/24 09:08:12;;;;;;;9.80;5.45;;;;;;;12.82;100.00;100168.34;4981766;28;20091;-72
2022/05/24 09:10:46;;;;;;;7.72;5.90;;;;;;;12.91;100.00;100185.78;4971048;28;20033;-71
2022/05/24 09:13:44;;;;;;;13.38;6.13;;;;;;;12.60;100.00;100148.88;4961747;28;20391;-71
2022/05/24 09:16:12;;;;;;;7.85;6.22;;;;;;;12.86;100.00;100196.13;4988648;28;20030;-71
2022/05/24 09:19:08;;;;;;;7.30;5.97;;;;;;;12.74;100.00;100191.25;4987305;28;20374;-71
2022/05/24 09:21:36;;;;;;;15.05;7.50;;;;;;;12.91;100.00;100199.88;4981629;28;20026;-71
2022/05/24 09:24:24;;;;;;;11.27;6.45;;;;;;;13.15;100.00;100198.78;4981649;28;20120;-71
2022/05/24 09:27:11;;;;;;;9.43;6.97;;;;;;;13.65;100.00;100208.81;4983523;28;20030;-71
2022/05/24 09:30:04;;;;;;;16.90;7.03;;;;;;;13.94;100.00;100202.66;4983956;28;20481;-71
2022/05/24 09:32:35;;;;;;;9.20;6.80;;;;;;;13.89;100.00;100205.88;4973178;28;20389;-71
2022/05/24 09:35:09;;;;;;;10.95;5.90;;;;;;;13.68;100.00;100208.47;4970706;28;20481;-72
2022/05/24 09:37:35;;;;;;;17.70;6.10;;;;;;;13.73;100.00;100209.53;4980455;28;20062;-72
2022/05/24 09:40:17;;;;;;;12.68;5.70;;;;;;;13.95;100.00;100215.69;4981908;28;20050;-71
2022/05/24 09:42:42;;;;;;;9.73;6.20;;;;;;;14.29;100.00;100210.75;4983137;28;20482;-72
2022/05/24 09:45:17;;;;;;;12.55;6.00;;;;;;;14.36;100.00;100219.59;4983329;28;20113;-72
2022/05/24 09:47:43;;;;;;;6.95;3.10;;;;;;;14.16;98.08;100219.41;4983726;28;20053;-71
2022/05/24 09:50:14;;;;;;;3.75;1.63;;;;;;;13.78;96.40;100227.53;4976200;28;20089;-71
2022/05/24 09:52:41;;;;;;;7.07;2.00;;;;;;;13.72;97.37;100225.66;4980866;28;20495;-71
2022/05/24 09:55:06;;;;;;;3.05;1.70;;;;;;;13.65;97.32;100232.69;4984847;28;20486;-71
2022/05/24 09:57:35;;;;;;;3.55;1.65;;;;;;;13.57;97.72;100233.63;4987821;28;20049;-71
2022/05/24 10:00:14;;;;;;;2.20;1.50;;;;;;;13.71;98.35;100235.41;4981114;28;20034;-72
2022/05/24 10:02:39;;;;;;;4.18;1.70;;;;;;;13.60;98.25;100235.09;4982965;28;20022;-71
2022/05/24 10:05:20;;;;;;;3.53;1.58;;;;;;;14.08;98.40;100243.41;4945688;28;20030;-72
2022/05/24 10:08:12;;;;;;;3.30;1.80;;;;;;;14.36;97.84;100240.81;4961092;28;20118;-70
2022/05/24 10:10:42;;;;;;;3.78;1.90;;;;;;;14.69;96.84;100251.78;4975732;28;20026;-71
2022/05/24 10:13:19;;;;;;;5.40;2.35;;;;;;;14.73;95.37;100252.22;4980917;28;20089;-72
2022/05/24 10:16:09;;;;;;;3.38;2.33;;;;;;;14.64;95.62;100254.19;4975297;28;20033;-72
2022/05/24 10:18:42;;;;;;;3.70;2.00;;;;;;;14.40;94.70;100255.38;4976814;28;20042;-70
2022/05/24 10:21:40;;;;;;;7.93;2.70;;;;;;;14.46;96.10;100251.13;4980378;28;20034;-72
2022/05/24 10:24:36;;;;;;;2.80;1.90;;;;;;;15.32;93.96;100267.78;4984049;28;20478;-73
2022/05/24 10:27:17;;;;;;;2.33;1.90;;;;;;;15.69;90.83;100267.56;4978796;28;20108;-73
2022/05/24 10:29:49;;;;;;;2.85;1.60;;;;;;;15.85;91.35;100261.91;4978592;28;20510;-70
2022/05/24 10:38:39;;;;;;;2.58;1.80;;;;;;;15.31;91.74;100283.91;4981824;28;20057;-72
2022/05/24 10:41:25;;;;;;;2.70;1.70;;;;;;;15.90;89.91;100280.78;4979904;28;20074;-70
2022/05/24 10:44:13;;;;;;;5.40;1.98;;;;;;;15.82;89.22;100292.41;4984282;28;20022;-72
2022/05/24 10:46:44;;;;;;;3.10;1.70;;;;;;;15.80;89.09;100281.16;4975181;28;20030;-70
2022/05/24 10:49:27;;;;;;;2.92;1.73;;;;;;;15.33;87.65;100289.84;4983406;28;20444;-70
2022/05/24 10:52:00;;;;;;;3.20;1.88;;;;;;;15.18;88.43;100288.13;4985038;28;20109;-70
2022/05/24 10:54:50;;;;;;;2.55;1.80;;;;;;;14.88;88.64;100292.00;4986229;28;20034;-73
2022/05/24 10:57:29;;;;;;;3.00;1.80;;;;;;;14.51;91.55;100291.22;4974387;28;20066;-71
2022/05/24 11:00:14;;;;;;;3.92;1.95;;;;;;;14.47;91.61;100282.78;4970280;28;20018;-70
2022/05/24 11:03:07;;;;;;;4.10;2.45;;;;;;;14.50;94.22;100300.19;4981166;28;20415;-71
2022/05/24 11:05:37;;;;;;;3.08;2.10;;;;;;;14.13;94.40;100305.53;4976872;28;20478;-71
2022/05/24 11:08:37;;;;;;;2.63;2.33;;;;;;;13.72;97.08;100302.56;4976868;28;20034;-71
2022/05/24 11:11:26;;;;;;;3.03;1.90;;;;;;;13.63;97.92;100296.53;4978520;28;20040;-71
2022/05/24 11:14:00;;;;;;;2.83;1.70;;;;;;;13.76;98.86;100314.44;4976217;28;20508;-71
2022/05/24 11:16:56;;;;;;;5.22;1.70;;;;;;;15.34;96.68;100320.75;4983918;28;20031;-71
2022/05/24 11:19:36;;;;;;;5.63;1.98;;;;;;;16.33;87.58;100320.47;4967298;28;20039;-71
2022/05/24 11:22:02;;;;;;;2.25;1.48;;;;;;;16.80;84.42;100304.59;4959304;28;20075;-71
2022/05/24 11:24:44;;;;;;;2.90;1.52;;;;;;;17.12;81.80;100310.94;4975715;28;20433;-70
2022/05/24 11:27:16;;;;;;;1.35;1.00;;;;;;;17.06;80.16;100311.75;4975853;28;20386;-71
2022/05/24 11:29:47;;;;;;;6.93;1.77;;;;;;;17.59;79.31;100321.53;4982272;28;20079;-71
2022/05/24 11:32:30;;;;;;;2.58;1.60;;;;;;;16.87;81.81;100318.72;4977516;28;20375;-71
2022/05/24 11:35:07;;;;;;;3.85;1.77;;;;;;;15.95;84.37;100331.56;4976852;28;20023;-71
2022/05/24 11:37:41;;;;;;;3.33;1.30;;;;;;;14.48;86.54;100320.78;4982565;28;20061;-71
2022/05/24 11:40:39;;;;;;;2.55;1.30;;;;;;;14.07;89.21;100345.25;4980999;28;20490;-71
2022/05/24 11:43:05;;;;;;;3.83;1.90;;;;;;;13.72;94.52;100374.16;4986038;28;20030;-71
2022/05/24 11:45:34;;;;;;;4.38;2.28;;;;;;;13.36;100.00;100396.03;4983983;28;20029;-71
2022/05/24 11:48:05;;;;;;;2.83;1.42;;;;;;;13.40;100.00;100421.19;4979200;28;20030;-70
2022/05/24 11:50:31;;;;;;;2.85;1.55;;;;;;;13.35;100.00;100412.97;4987035;28;20251;-71
2022/05/24 11:53:05;;;;;;;3.40;1.75;;;;;;;13.91;100.00;100409.91;4985819;28;20077;-71
2022/05/24 11:55:43;;;;;;;3.67;2.03;;;;;;;14.40;100.00;100406.69;4986061;28;20064;-71
2022/05/24 11:58:21;;;;;;;29.02;4.57;;;;;;;16.03;100.00;100418.44;4988823;28;20089;-70
2022/05/24 12:01:29;;;;;;;8.93;2.65;;;;;;;16.70;100.00;100406.22;4986723;28;20069;-72
2022/05/24 12:10:20;;;;;;;4.35;2.15;;;;;;;20.54;82.06;100409.06;4979603;28;20047;-71
2022/05/24 12:12:55;;;;;;;3.20;2.05;;;;;;;20.38;75.70;100404.31;4978355;28;20086;-71
2022/05/24 12:15:43;;;;;;;2.25;1.67;;;;;;;20.08;72.49;100410.47;4983028;28;20062;-71